Portada
METAR-TAF:

METAR-TAF

Aeroports :

Phillip Goldston

Belize City, Belize

latitud: 17-32N, longitud: 088-18W, altitud: 5 m

Observació

L'informe es va fer fa 6 hores i 23 minuts, a les 03:00 UTC
Vent 10 kt del Est
Temperatura
Pressió
Visibilitat: 9000 m
Núvols disperses a una alçada de 2400 ft

METAR: MZBZ 190300Z 1906/2006 09010KT 9000 SCT024

Hora: 03:23 (09:23 UTC)

Pronòstic

L'informe es va fer fa 5 hores i 53 minuts, a les 03:30 UTC
Pronòstic vàlid del 19 a les 06 UTC al 20 a les 06 UTC
Vent 10 kt del Est
Visibilitat: 9000 m
Núvols disperses a una alçada de 2400 ft

TAF: MZBZ 190330Z 1906/2006 09010KT 9000 SCT024

Observacions i pronòstics meteorològics de més de 4000 aeroports (METAR i TAF).

Les estacions disponibles són els punts grocs i vermells al mapa.

Posi el ratolí al punt desitjat per veure el nom de l'estació.

Feu clic per veure les observacions i els pronòstics meteorològics.

Per canviar el mapa: feu clic els botons verds amb una creu de color negre per apropar; al botó verd amb un guió per allunyar la imatge; o en les fletxes verdes per a mapes adjacents.


METAR-TAF: